Time;durP1;ratioP1;P1;durP2;ratioP2;P2;SDS_P1;SDS_P2;PMS_P1;PMS_P2;Temp;Humidity;BMP_temperature;BMP_pressure;BME280_temperature;BME280_humidity;BME280_pressure;Samples;Min_cycle;Max_cycle;Signal;HPM_P1;HPM_P2
2021/05/26 00:01:02;;;;;;;1.42;1.33;;;;;;;;;;4990853;28;20180;-47
2021/05/26 00:03:28;;;;;;;1.23;1.13;;;;;;;;;;4986690;28;20702;-47
2021/05/26 00:05:53;;;;;;;2.60;1.17;;;;;;;;;;4985968;28;20322;-48
2021/05/26 00:08:25;;;;;;;1.48;1.38;;;;;;;;;;4986496;28;20174;-47
2021/05/26 00:10:50;;;;;;;1.83;1.00;;;;;;;;;;4987201;28;20178;-47
2021/05/26 00:13:15;;;;;;;1.10;1.00;;;;;;;;;;4980766;28;20722;-47
2021/05/26 00:15:40;;;;;;;1.80;1.30;;;;;;;;;;4976177;28;20186;-48
2021/05/26 00:18:06;;;;;;;1.88;1.25;;;;;;;;;;4986086;28;20235;-48
2021/05/26 00:20:31;;;;;;;0.90;0.90;;;;;;;;;;4989178;28;20274;-48
2021/05/26 00:22:56;;;;;;;1.40;1.30;;;;;;;;;;4989262;28;20182;-48
2021/05/26 00:25:21;;;;;;;1.73;1.33;;;;;;;;;;4986293;28;20817;-47
2021/05/26 00:27:47;;;;;;;1.98;1.33;;;;;;;;;;4988679;28;20205;-48
2021/05/26 00:30:12;;;;;;;3.07;1.30;;;;;;;;;;4987611;28;20462;-47
2021/05/26 00:32:37;;;;;;;1.93;1.30;;;;;;;;;;4997894;28;20177;-48
2021/05/26 00:35:03;;;;;;;2.60;1.60;;;;;;;;;;4987937;28;20575;-47
2021/05/26 00:37:28;;;;;;;1.67;1.20;;;;;;;;;;4986372;28;20637;-48
2021/05/26 00:39:53;;;;;;;3.00;1.27;;;;;;;;;;4987614;28;20185;-48
2021/05/26 00:42:19;;;;;;;1.93;1.17;;;;;;;;;;4988024;28;20178;-48
2021/05/26 00:44:44;;;;;;;1.90;1.20;;;;;;;;;;4987991;28;20176;-49
2021/05/26 00:47:09;;;;;;;1.40;1.30;;;;;;;;;;4985779;28;20967;-48
2021/05/26 00:49:34;;;;;;;1.00;1.00;;;;;;;;;;4986347;28;20621;-48
2021/05/26 00:51:59;;;;;;;4.47;1.45;;;;;;;;;;4992668;28;20273;-48
2021/05/26 00:54:24;;;;;;;2.53;1.33;;;;;;;;;;4986188;28;20188;-48
2021/05/26 00:56:50;;;;;;;1.45;1.30;;;;;;;;;;4987975;28;20174;-48
2021/05/26 00:59:15;;;;;;;1.73;1.20;;;;;;;;;;4986163;28;20197;-48
2021/05/26 01:01:40;;;;;;;2.07;1.27;;;;;;;;;;4986592;28;20182;-48
2021/05/26 01:04:05;;;;;;;1.42;1.30;;;;;;;;;;4987078;28;20175;-47
2021/05/26 01:06:30;;;;;;;1.60;1.17;;;;;;;;;;4985644;28;20213;-48
2021/05/26 01:08:55;;;;;;;1.70;1.50;;;;;;;;;;4987734;28;20166;-48
2021/05/26 01:11:21;;;;;;;1.67;1.53;;;;;;;;;;4988422;28;20173;-49
2021/05/26 01:13:46;;;;;;;1.45;1.35;;;;;;;;;;4985333;28;20257;-48
2021/05/26 01:16:11;;;;;;;1.57;1.20;;;;;;;;;;4990319;28;20641;-48
2021/05/26 01:18:37;;;;;;;2.17;1.30;;;;;;;;;;4985660;28;20178;-47
2021/05/26 01:21:06;;;;;;;3.67;1.10;;;;;;;;;;4989507;28;20184;-48
2021/05/26 01:23:32;;;;;;;1.77;1.17;;;;;;;;;;4992518;28;20269;-48
2021/05/26 01:25:58;;;;;;;0.90;0.90;;;;;;;;;;4989897;28;20739;-48
2021/05/26 01:28:24;;;;;;;2.30;1.27;;;;;;;;;;4989351;28;20209;-49
2021/05/26 01:30:49;;;;;;;1.40;1.30;;;;;;;;;;4992406;28;20660;-48
2021/05/26 01:33:15;;;;;;;1.87;1.37;;;;;;;;;;4991050;28;20178;-48
2021/05/26 01:35:41;;;;;;;1.10;1.10;;;;;;;;;;4987199;28;20178;-49
2021/05/26 01:38:07;;;;;;;1.50;1.40;;;;;;;;;;4991781;28;20197;-48
2021/05/26 01:40:32;;;;;;;1.63;1.50;;;;;;;;;;4991016;28;20611;-49
2021/05/26 01:42:57;;;;;;;2.30;1.20;;;;;;;;;;4989552;28;20185;-48
2021/05/26 01:45:22;;;;;;;3.80;1.57;;;;;;;;;;4988972;28;20543;-48
2021/05/26 01:47:49;;;;;;;1.23;1.13;;;;;;;;;;4989858;28;20177;-48
2021/05/26 01:50:21;;;;;;;2.27;1.30;;;;;;;;;;4989396;28;20178;-48
2021/05/26 01:52:47;;;;;;;1.93;1.50;;;;;;;;;;4991389;28;20627;-48
2021/05/26 01:55:13;;;;;;;1.07;1.07;;;;;;;;;;4989773;28;21356;-47
2021/05/26 01:57:41;;;;;;;1.60;1.50;;;;;;;;;;4989513;28;20600;-48
2021/05/26 02:00:06;;;;;;;1.53;1.43;;;;;;;;;;4990378;28;20580;-46
2021/05/26 02:02:32;;;;;;;3.90;1.50;;;;;;;;;;4986448;28;20620;-49
2021/05/26 02:04:57;;;;;;;1.57;1.50;;;;;;;;;;4972844;28;20200;-47
2021/05/26 02:07:22;;;;;;;1.55;1.23;;;;;;;;;;4976887;28;20918;-47
2021/05/26 02:09:47;;;;;;;2.05;1.85;;;;;;;;;;4992906;28;20209;-46
2021/05/26 02:12:22;;;;;;;2.50;1.50;;;;;;;;;;4974667;28;20182;-53
2021/05/26 02:14:52;;;;;;;1.80;1.53;;;;;;;;;;4990142;28;20260;-47
2021/05/26 02:17:17;;;;;;;3.20;1.80;;;;;;;;;;4988541;28;20604;-48
2021/05/26 02:19:42;;;;;;;3.50;1.80;;;;;;;;;;4988178;28;20610;-47
2021/05/26 02:22:07;;;;;;;3.03;1.90;;;;;;;;;;4988361;28;20695;-47
2021/05/26 02:24:32;;;;;;;2.28;1.77;;;;;;;;;;4975509;28;20172;-47
2021/05/26 02:26:58;;;;;;;2.80;1.70;;;;;;;;;;4993053;28;20256;-46
2021/05/26 02:29:23;;;;;;;2.85;1.50;;;;;;;;;;4987726;28;20433;-47
2021/05/26 02:31:48;;;;;;;4.50;2.20;;;;;;;;;;4989220;28;20197;-48
2021/05/26 02:34:14;;;;;;;1.50;1.40;;;;;;;;;;4989832;28;20244;-47
2021/05/26 02:36:39;;;;;;;1.50;1.40;;;;;;;;;;4990266;28;20184;-48
2021/05/26 02:39:05;;;;;;;2.07;1.87;;;;;;;;;;4990173;28;20236;-48
2021/05/26 02:41:30;;;;;;;3.63;1.77;;;;;;;;;;4989730;28;20705;-48
2021/05/26 02:43:55;;;;;;;2.33;1.98;;;;;;;;;;4988717;28;20631;-48
2021/05/26 02:46:20;;;;;;;3.38;1.80;;;;;;;;;;4992826;28;20210;-48
2021/05/26 02:48:46;;;;;;;2.45;2.25;;;;;;;;;;4990251;28;20188;-47
2021/05/26 02:51:11;;;;;;;4.17;3.63;;;;;;;;;;4986026;28;20199;-47
2021/05/26 02:53:36;;;;;;;2.95;2.65;;;;;;;;;;4987443;28;20234;-48
2021/05/26 02:56:01;;;;;;;2.90;2.67;;;;;;;;;;4992599;28;20271;-48
2021/05/26 02:58:26;;;;;;;3.50;2.33;;;;;;;;;;5004809;28;20641;-47
2021/05/26 03:00:51;;;;;;;2.20;2.00;;;;;;;;;;4987541;28;20185;-48
2021/05/26 03:03:17;;;;;;;2.55;1.77;;;;;;;;;;4987935;28;20519;-48
2021/05/26 03:05:42;;;;;;;2.60;1.77;;;;;;;;;;4989198;28;20205;-49
2021/05/26 03:08:07;;;;;;;2.72;2.08;;;;;;;;;;4988003;28;20246;-47
2021/05/26 03:10:32;;;;;;;2.40;2.00;;;;;;;;;;4991747;28;20717;-48
2021/05/26 03:12:57;;;;;;;2.27;2.10;;;;;;;;;;4989042;28;20188;-48
2021/05/26 03:15:23;;;;;;;2.28;1.45;;;;;;;;;;4992790;28;20231;-49
2021/05/26 03:17:48;;;;;;;2.20;2.00;;;;;;;;;;4991544;28;20199;-48
2021/05/26 03:20:14;;;;;;;5.05;2.90;;;;;;;;;;4989195;28;20176;-48
2021/05/26 03:22:39;;;;;;;5.90;2.90;;;;;;;;;;5001065;28;20644;-48
2021/05/26 03:25:06;;;;;;;2.60;2.40;;;;;;;;;;4998716;28;20603;-48
2021/05/26 03:27:37;;;;;;;5.83;2.13;;;;;;;;;;4989404;28;20694;-48
2021/05/26 03:30:07;;;;;;;3.40;2.40;;;;;;;;;;4987057;28;21295;-47
2021/05/26 03:32:33;;;;;;;2.60;2.40;;;;;;;;;;4985993;28;20643;-47
2021/05/26 03:34:58;;;;;;;3.57;2.63;;;;;;;;;;4980845;28;20605;-47
2021/05/26 03:37:23;;;;;;;5.03;2.53;;;;;;;;;;4987876;28;20181;-47
2021/05/26 03:39:48;;;;;;;2.50;2.05;;;;;;;;;;4986846;28;20244;-48
2021/05/26 03:42:14;;;;;;;2.87;2.50;;;;;;;;;;4987068;28;20185;-47
2021/05/26 03:44:39;;;;;;;2.53;2.33;;;;;;;;;;4983349;28;20541;-47
2021/05/26 03:47:04;;;;;;;3.20;2.30;;;;;;;;;;4987046;28;20221;-47
2021/05/26 03:49:29;;;;;;;2.83;2.40;;;;;;;;;;4984530;28;20687;-47
2021/05/26 03:51:54;;;;;;;2.67;1.40;;;;;;;;;;4982976;28;20188;-47
2021/05/26 03:54:20;;;;;;;2.10;1.90;;;;;;;;;;4983893;28;20178;-48
2021/05/26 03:56:45;;;;;;;2.00;1.80;;;;;;;;;;4985014;28;20548;-48
2021/05/26 03:59:10;;;;;;;2.53;1.77;;;;;;;;;;4981101;28;20269;-47
2021/05/26 04:01:36;;;;;;;2.40;2.00;;;;;;;;;;4973963;28;20557;-49
2021/05/26 04:04:01;;;;;;;3.53;2.07;;;;;;;;;;4984051;28;20236;-47
2021/05/26 04:06:26;;;;;;;2.20;2.00;;;;;;;;;;4981017;28;20206;-46
2021/05/26 04:08:52;;;;;;;3.25;1.92;;;;;;;;;;4984496;28;20186;-47
2021/05/26 04:11:17;;;;;;;2.20;2.10;;;;;;;;;;4994878;28;20629;-47
2021/05/26 04:13:42;;;;;;;2.30;2.10;;;;;;;;;;4992391;28;20699;-47
2021/05/26 04:16:08;;;;;;;4.00;2.57;;;;;;;;;;4993558;28;20185;-46
2021/05/26 04:18:33;;;;;;;3.40;2.50;;;;;;;;;;4988242;28;20190;-48
2021/05/26 04:20:58;;;;;;;3.97;2.30;;;;;;;;;;4986984;28;20241;-46
2021/05/26 04:23:23;;;;;;;3.10;2.30;;;;;;;;;;4988113;28;20240;-47
2021/05/26 04:25:51;;;;;;;4.30;2.60;;;;;;;;;;4985199;28;20203;-47
2021/05/26 04:28:20;;;;;;;3.20;2.10;;;;;;;;;;4987115;28;20620;-48
2021/05/26 04:30:46;;;;;;;3.00;2.13;;;;;;;;;;4986250;28;20641;-47
2021/05/26 04:33:11;;;;;;;2.70;2.50;;;;;;;;;;4983692;28;20643;-46
2021/05/26 04:35:36;;;;;;;3.03;2.27;;;;;;;;;;4982790;28;20360;-47
2021/05/26 04:38:01;;;;;;;2.30;2.10;;;;;;;;;;4980443;28;20261;-47
2021/05/26 04:40:26;;;;;;;2.40;2.20;;;;;;;;;;4982657;28;20658;-46
2021/05/26 04:42:51;;;;;;;2.30;1.97;;;;;;;;;;4982538;28;20233;-47
2021/05/26 04:45:16;;;;;;;2.60;2.40;;;;;;;;;;4985131;28;20275;-47
2021/05/26 04:47:42;;;;;;;4.88;2.85;;;;;;;;;;4982999;28;20210;-47
2021/05/26 04:50:07;;;;;;;3.15;2.63;;;;;;;;;;4982975;28;20174;-47
2021/05/26 04:52:32;;;;;;;2.30;2.10;;;;;;;;;;4984272;28;20186;-46
2021/05/26 04:54:57;;;;;;;3.05;2.40;;;;;;;;;;4981467;28;20633;-48
2021/05/26 04:57:23;;;;;;;2.40;2.20;;;;;;;;;;5001301;28;20193;-46
2021/05/26 04:59:48;;;;;;;4.53;2.77;;;;;;;;;;4989718;28;20186;-46
2021/05/26 05:02:13;;;;;;;8.03;2.50;;;;;;;;;;4984853;28;20278;-46
2021/05/26 05:04:38;;;;;;;2.92;2.60;;;;;;;;;;4982735;28;20284;-47
2021/05/26 05:07:03;;;;;;;3.90;2.27;;;;;;;;;;4994963;28;20210;-47
2021/05/26 05:09:28;;;;;;;2.60;2.40;;;;;;;;;;4982807;28;20175;-47
2021/05/26 05:11:54;;;;;;;4.13;2.23;;;;;;;;;;4996624;28;20189;-47
2021/05/26 05:14:19;;;;;;;2.88;2.22;;;;;;;;;;4998428;28;20688;-47
2021/05/26 05:16:44;;;;;;;2.83;2.50;;;;;;;;;;4997735;28;20274;-47
2021/05/26 05:19:09;;;;;;;2.30;2.10;;;;;;;;;;4987031;28;20179;-47
2021/05/26 05:21:34;;;;;;;1.80;1.70;;;;;;;;;;4986953;28;20178;-47
2021/05/26 05:23:59;;;;;;;2.27;1.90;;;;;;;;;;4986151;28;20184;-48
2021/05/26 05:26:24;;;;;;;2.43;1.80;;;;;;;;;;4991514;28;20204;-47
2021/05/26 05:28:50;;;;;;;1.92;1.80;;;;;;;;;;4987081;28;20194;-47
2021/05/26 05:31:15;;;;;;;2.13;1.45;;;;;;;;;;4995173;28;20214;-47
2021/05/26 05:33:40;;;;;;;1.73;1.60;;;;;;;;;;5006998;28;20314;-46
2021/05/26 05:36:05;;;;;;;3.33;1.70;;;;;;;;;;4998357;28;20616;-47
2021/05/26 05:38:30;;;;;;;2.10;1.80;;;;;;;;;;4987191;28;20181;-47
2021/05/26 05:40:55;;;;;;;1.90;1.80;;;;;;;;;;4986884;28;20187;-47
2021/05/26 05:43:21;;;;;;;2.75;1.65;;;;;;;;;;4987320;28;20358;-47
2021/05/26 05:45:46;;;;;;;1.83;1.40;;;;;;;;;;4987454;28;20659;-48
2021/05/26 05:48:11;;;;;;;2.50;1.43;;;;;;;;;;4987427;28;20272;-48
2021/05/26 05:50:36;;;;;;;2.17;1.80;;;;;;;;;;4987199;28;20182;-48
2021/05/26 05:53:04;;;;;;;2.10;1.30;;;;;;;;;;4987162;28;20551;-48
2021/05/26 05:55:29;;;;;;;2.60;1.60;;;;;;;;;;5003676;28;20208;-48
2021/05/26 05:57:57;;;;;;;1.50;1.40;;;;;;;;;;5004175;28;20657;-47
2021/05/26 06:00:22;;;;;;;3.10;1.70;;;;;;;;;;5003675;28;20189;-47
2021/05/26 06:02:47;;;;;;;3.67;2.03;;;;;;;;;;4986571;28;20641;-47
2021/05/26 06:05:13;;;;;;;3.72;1.60;;;;;;;;;;4985172;28;20205;-47
2021/05/26 06:07:38;;;;;;;1.80;1.70;;;;;;;;;;4987073;28;20692;-47
2021/05/26 06:10:04;;;;;;;4.73;1.90;;;;;;;;;;4988602;28;20608;-48
2021/05/26 06:12:29;;;;;;;1.93;1.73;;;;;;;;;;4991301;28;20170;-46
2021/05/26 06:14:54;;;;;;;1.63;1.45;;;;;;;;;;4988734;28;20579;-47
2021/05/26 06:17:19;;;;;;;2.65;1.40;;;;;;;;;;5007236;28;20549;-47
2021/05/26 06:19:44;;;;;;;2.00;1.70;;;;;;;;;;4990454;28;20219;-48
2021/05/26 06:22:10;;;;;;;2.17;1.97;;;;;;;;;;4990683;28;20187;-48
2021/05/26 06:24:35;;;;;;;2.63;1.70;;;;;;;;;;4991471;28;20702;-47
2021/05/26 06:27:00;;;;;;;2.45;1.73;;;;;;;;;;4990227;28;20689;-48
2021/05/26 06:29:25;;;;;;;2.23;1.17;;;;;;;;;;4988772;28;20221;-47
2021/05/26 06:31:51;;;;;;;1.40;1.30;;;;;;;;;;5002897;28;20184;-48
2021/05/26 06:34:16;;;;;;;2.20;1.67;;;;;;;;;;5007974;28;20170;-49
2021/05/26 06:36:41;;;;;;;1.80;1.70;;;;;;;;;;4999065;28;20212;-47
2021/05/26 06:39:06;;;;;;;1.50;1.30;;;;;;;;;;4987960;28;20557;-47
2021/05/26 06:41:32;;;;;;;2.08;1.80;;;;;;;;;;4989517;28;20648;-47
2021/05/26 06:43:57;;;;;;;2.10;1.60;;;;;;;;;;4989857;28;20181;-48
2021/05/26 06:46:22;;;;;;;2.60;1.80;;;;;;;;;;4990020;28;20209;-47
2021/05/26 06:48:47;;;;;;;2.60;1.40;;;;;;;;;;4988400;28;20567;-47
2021/05/26 06:51:12;;;;;;;1.60;1.50;;;;;;;;;;4989447;28;20173;-47
2021/05/26 06:53:38;;;;;;;2.50;1.40;;;;;;;;;;4989479;28;20205;-48
2021/05/26 06:56:03;;;;;;;2.67;1.80;;;;;;;;;;4988115;28;20183;-48
2021/05/26 06:58:28;;;;;;;2.17;1.70;;;;;;;;;;4989720;28;20194;-47
2021/05/26 07:00:53;;;;;;;5.75;2.20;;;;;;;;;;4987584;28;20611;-48
2021/05/26 07:03:18;;;;;;;1.55;1.40;;;;;;;;;;4987784;28;20212;-48
2021/05/26 07:05:44;;;;;;;2.03;1.70;;;;;;;;;;4989159;28;20203;-47
2021/05/26 07:08:09;;;;;;;2.23;1.77;;;;;;;;;;4989223;28;20174;-48
2021/05/26 07:10:34;;;;;;;2.77;1.80;;;;;;;;;;4990362;28;20253;-47
2021/05/26 07:12:59;;;;;;;3.13;1.70;;;;;;;;;;5006758;28;20181;-49
2021/05/26 07:15:25;;;;;;;3.35;1.60;;;;;;;;;;5009139;28;20201;-47
2021/05/26 07:17:50;;;;;;;3.40;1.63;;;;;;;;;;5008421;28;20180;-48
2021/05/26 07:20:15;;;;;;;3.10;1.63;;;;;;;;;;4991091;28;20200;-48
2021/05/26 07:22:41;;;;;;;2.07;1.40;;;;;;;;;;4994050;28;20570;-47
2021/05/26 07:25:06;;;;;;;1.87;1.40;;;;;;;;;;4988868;28;20197;-48
2021/05/26 07:27:31;;;;;;;2.70;1.97;;;;;;;;;;4987300;28;20206;-47
2021/05/26 07:29:56;;;;;;;2.92;1.80;;;;;;;;;;4985022;28;20339;-48
2021/05/26 07:32:22;;;;;;;1.43;1.33;;;;;;;;;;4987298;28;20180;-49
2021/05/26 07:34:47;;;;;;;5.40;2.03;;;;;;;;;;4986262;28;20184;-48
2021/05/26 07:37:12;;;;;;;5.20;2.30;;;;;;;;;;4987837;28;20211;-48
2021/05/26 07:39:38;;;;;;;2.10;1.67;;;;;;;;;;4988527;28;20187;-49
2021/05/26 07:42:03;;;;;;;3.80;1.87;;;;;;;;;;4988124;28;20203;-48
2021/05/26 07:44:29;;;;;;;2.40;1.77;;;;;;;;;;4983209;28;20258;-49
2021/05/26 07:46:54;;;;;;;2.67;1.90;;;;;;;;;;4987502;28;20550;-49
2021/05/26 07:49:23;;;;;;;2.40;1.50;;;;;;;;;;4987474;28;20178;-50
2021/05/26 07:51:52;;;;;;;1.57;1.40;;;;;;;;;;4986853;28;20253;-48
2021/05/26 07:54:18;;;;;;;3.10;1.80;;;;;;;;;;4986238;28;20690;-49
2021/05/26 07:56:43;;;;;;;2.80;2.10;;;;;;;;;;4988522;28;20583;-49
2021/05/26 07:59:20;;;;;;;2.30;1.80;;;;;;;;;;4979267;28;20616;-47
2021/05/26 08:01:45;;;;;;;3.40;1.80;;;;;;;;;;4981866;28;20243;-46
2021/05/26 08:04:11;;;;;;;4.32;2.00;;;;;;;;;;4987202;28;21328;-47
2021/05/26 08:06:36;;;;;;;2.70;1.80;;;;;;;;;;4979919;28;20234;-48
2021/05/26 08:09:02;;;;;;;2.17;1.80;;;;;;;;;;4981046;28;20191;-48
2021/05/26 08:11:27;;;;;;;2.97;1.63;;;;;;;;;;4986767;28;20182;-48
2021/05/26 08:13:52;;;;;;;1.55;1.40;;;;;;;;;;4979131;28;20242;-47
2021/05/26 08:16:18;;;;;;;2.90;1.87;;;;;;;;;;4972404;28;20531;-48
2021/05/26 08:18:43;;;;;;;2.47;1.87;;;;;;;;;;4986353;28;20668;-48
2021/05/26 08:21:08;;;;;;;2.75;2.05;;;;;;;;;;4984010;28;20222;-49
2021/05/26 08:23:33;;;;;;;2.33;1.67;;;;;;;;;;4986419;28;20215;-49
2021/05/26 08:25:58;;;;;;;2.17;1.80;;;;;;;;;;4986436;28;20199;-49
2021/05/26 08:28:25;;;;;;;2.00;1.80;;;;;;;;;;4987537;28;20203;-49
2021/05/26 08:30:50;;;;;;;2.43;1.50;;;;;;;;;;4992928;28;20245;-48
2021/05/26 08:33:15;;;;;;;2.97;1.67;;;;;;;;;;4999831;28;20699;-45
2021/05/26 08:35:40;;;;;;;1.97;1.50;;;;;;;;;;4991982;28;20190;-46
2021/05/26 08:38:05;;;;;;;3.67;1.85;;;;;;;;;;5007434;28;20574;-47
2021/05/26 08:40:31;;;;;;;4.20;1.63;;;;;;;;;;5007517;28;20180;-47
2021/05/26 08:42:57;;;;;;;4.00;1.60;;;;;;;;;;5005599;28;20172;-48
2021/05/26 08:45:22;;;;;;;3.07;1.53;;;;;;;;;;5004552;28;20259;-48
2021/05/26 08:47:50;;;;;;;1.83;1.60;;;;;;;;;;4987730;28;20631;-48
2021/05/26 08:50:16;;;;;;;2.30;1.60;;;;;;;;;;4987972;28;20165;-47
2021/05/26 08:52:41;;;;;;;1.47;1.37;;;;;;;;;;4987735;28;20576;-47
2021/05/26 08:55:10;;;;;;;2.43;1.43;;;;;;;;;;4988259;28;20175;-48
2021/05/26 08:57:35;;;;;;;1.60;1.50;;;;;;;;;;4986244;28;20620;-48
2021/05/26 09:00:00;;;;;;;2.77;1.40;;;;;;;;;;4985841;28;20627;-48
2021/05/26 09:02:25;;;;;;;1.63;1.53;;;;;;;;;;4988951;28;20208;-48
2021/05/26 09:04:50;;;;;;;2.22;1.70;;;;;;;;;;4987596;28;20262;-49
2021/05/26 09:07:16;;;;;;;2.00;1.40;;;;;;;;;;4987527;28;20245;-48
2021/05/26 09:09:52;;;;;;;1.80;1.53;;;;;;;;;;4987440;28;20254;-48
2021/05/26 09:12:31;;;;;;;1.50;1.40;;;;;;;;;;4986346;28;20602;-48
2021/05/26 09:15:01;;;;;;;1.97;1.87;;;;;;;;;;4987355;28;21162;-48
2021/05/26 09:17:28;;;;;;;1.70;1.60;;;;;;;;;;5006691;28;20701;-48
2021/05/26 09:20:08;;;;;;;1.77;1.40;;;;;;;;;;5005200;28;20592;-49
2021/05/26 09:22:33;;;;;;;4.60;2.17;;;;;;;;;;5003752;28;20656;-48
2021/05/26 09:28:11;;;;;;;4.33;2.40;;;;;;;;;;5003180;28;20217;-48
2021/05/26 09:30:36;;;;;;;3.20;2.30;;;;;;;;;;5006593;28;20694;-47
2021/05/26 09:33:20;;;;;;;4.85;2.65;;;;;;;;;;5004968;28;20616;-47
2021/05/26 09:35:45;;;;;;;3.90;2.33;;;;;;;;;;5005178;28;20232;-48
2021/05/26 09:38:10;;;;;;;2.35;1.75;;;;;;;;;;5006929;28;20602;-48
2021/05/26 09:40:38;;;;;;;2.50;1.80;;;;;;;;;;5006616;28;20177;-48
2021/05/26 09:43:03;;;;;;;2.20;2.00;;;;;;;;;;5008164;28;20241;-47
2021/05/26 09:45:30;;;;;;;4.32;2.00;;;;;;;;;;5006945;28;20611;-48
2021/05/26 09:47:56;;;;;;;2.20;2.00;;;;;;;;;;4989420;28;20758;-48
2021/05/26 09:50:21;;;;;;;1.80;1.63;;;;;;;;;;4989460;28;20578;-50
2021/05/26 09:53:00;;;;;;;3.63;2.00;;;;;;;;;;4991982;28;20176;-47
2021/05/26 09:55:28;;;;;;;2.20;1.60;;;;;;;;;;5008954;28;20178;-49
2021/05/26 09:57:53;;;;;;;3.07;2.10;;;;;;;;;;5009353;28;20575;-47
2021/05/26 10:00:19;;;;;;;2.27;1.70;;;;;;;;;;4999469;28;21056;-48
2021/05/26 10:02:45;;;;;;;1.67;1.57;;;;;;;;;;5008904;28;20177;-48
2021/05/26 10:05:10;;;;;;;2.03;1.67;;;;;;;;;;5008529;28;20651;-48
2021/05/26 10:07:37;;;;;;;2.20;1.83;;;;;;;;;;5010538;28;20610;-48
2021/05/26 10:10:03;;;;;;;2.77;1.53;;;;;;;;;;5009814;28;20180;-48
2021/05/26 10:12:31;;;;;;;2.10;1.47;;;;;;;;;;4992870;28;20722;-49
2021/05/26 10:14:59;;;;;;;2.20;2.00;;;;;;;;;;4999059;28;21010;-49
2021/05/26 10:17:27;;;;;;;2.20;1.70;;;;;;;;;;4989100;28;20670;-48
2021/05/26 10:19:53;;;;;;;5.03;2.07;;;;;;;;;;4990620;28;21148;-49
2021/05/26 10:22:19;;;;;;;2.30;1.60;;;;;;;;;;4988407;28;20581;-49
2021/05/26 10:24:44;;;;;;;5.10;2.10;;;;;;;;;;4991199;28;20178;-49
2021/05/26 10:27:10;;;;;;;3.73;2.40;;;;;;;;;;4990263;28;20229;-49
2021/05/26 10:29:38;;;;;;;4.27;2.27;;;;;;;;;;4988727;28;20683;-49
2021/05/26 10:32:05;;;;;;;2.13;1.93;;;;;;;;;;4989948;28;20182;-48
2021/05/26 10:34:42;;;;;;;2.40;2.20;;;;;;;;;;4990361;28;21207;-48
2021/05/26 10:37:08;;;;;;;2.50;2.07;;;;;;;;;;5007415;28;21016;-48
2021/05/26 10:39:33;;;;;;;3.43;2.10;;;;;;;;;;5008918;28;20640;-49
2021/05/26 10:42:00;;;;;;;2.97;2.23;;;;;;;;;;5009831;28;20180;-48
2021/05/26 10:44:44;;;;;;;3.07;1.83;;;;;;;;;;5009498;28;20185;-48
2021/05/26 10:47:28;;;;;;;2.03;1.93;;;;;;;;;;4990212;28;20700;-48
2021/05/26 10:49:53;;;;;;;2.80;2.03;;;;;;;;;;4990642;28;20584;-48
2021/05/26 10:52:18;;;;;;;3.40;2.23;;;;;;;;;;5007121;28;20911;-48
2021/05/26 10:54:43;;;;;;;4.25;2.10;;;;;;;;;;5009370;28;20170;-48
2021/05/26 10:57:09;;;;;;;1.70;1.60;;;;;;;;;;5004254;28;20246;-48
2021/05/26 10:59:34;;;;;;;1.80;1.70;;;;;;;;;;4993565;28;20180;-49
2021/05/26 11:02:07;;;;;;;2.07;1.87;;;;;;;;;;4989472;28;20683;-48
2021/05/26 11:04:36;;;;;;;2.80;1.57;;;;;;;;;;4989537;28;20642;-47
2021/05/26 11:07:33;;;;;;;4.10;1.90;;;;;;;;;;4988878;28;21013;-48
2021/05/26 11:10:00;;;;;;;1.60;1.50;;;;;;;;;;4987421;28;20595;-47
2021/05/26 11:12:26;;;;;;;1.60;1.50;;;;;;;;;;4989475;28;20596;-48
2021/05/26 11:14:55;;;;;;;3.10;1.70;;;;;;;;;;4987294;28;20650;-48
2021/05/26 11:17:21;;;;;;;1.50;1.40;;;;;;;;;;4987881;28;20206;-49
2021/05/26 11:19:47;;;;;;;2.03;1.80;;;;;;;;;;4990021;28;20581;-48
2021/05/26 11:22:15;;;;;;;1.93;1.73;;;;;;;;;;4989278;28;20933;-48
2021/05/26 11:24:43;;;;;;;2.20;2.00;;;;;;;;;;4987340;28;20954;-47
2021/05/26 11:27:13;;;;;;;2.00;1.40;;;;;;;;;;4989971;28;20656;-48
2021/05/26 11:29:38;;;;;;;2.00;1.67;;;;;;;;;;4987495;28;20616;-48
2021/05/26 11:32:04;;;;;;;2.70;1.50;;;;;;;;;;4981757;28;20686;-49
2021/05/26 11:34:29;;;;;;;1.40;1.30;;;;;;;;;;4987397;28;20262;-49
2021/05/26 11:36:54;;;;;;;1.60;1.50;;;;;;;;;;4993410;28;20218;-50
2021/05/26 11:39:27;;;;;;;2.42;1.50;;;;;;;;;;5006876;28;20193;-49
2021/05/26 11:42:07;;;;;;;3.83;2.00;;;;;;;;;;5007334;28;20231;-48
2021/05/26 11:44:39;;;;;;;1.77;1.67;;;;;;;;;;5006488;28;20587;-47
2021/05/26 11:47:05;;;;;;;1.80;1.70;;;;;;;;;;4991588;28;20666;-47
2021/05/26 11:49:31;;;;;;;2.23;1.70;;;;;;;;;;4989111;28;20581;-47
2021/05/26 11:51:59;;;;;;;1.60;1.47;;;;;;;;;;4986764;28;20171;-47
2021/05/26 11:54:25;;;;;;;1.70;1.60;;;;;;;;;;4988364;28;20574;-48
2021/05/26 11:56:56;;;;;;;2.00;1.80;;;;;;;;;;4989785;28;20614;-47
2021/05/26 11:59:24;;;;;;;3.17;2.20;;;;;;;;;;4989161;28;20215;-48
2021/05/26 12:01:49;;;;;;;4.10;2.00;;;;;;;;;;4988631;28;20633;-47
2021/05/26 12:04:15;;;;;;;1.77;1.67;;;;;;;;;;4985999;28;21006;-47
2021/05/26 12:06:40;;;;;;;2.00;1.90;;;;;;;;;;4987460;28;20256;-47
2021/05/26 12:09:05;;;;;;;1.90;1.73;;;;;;;;;;4986966;28;20546;-48
2021/05/26 12:11:30;;;;;;;3.00;2.07;;;;;;;;;;4988404;28;20204;-48
2021/05/26 12:13:57;;;;;;;2.60;1.80;;;;;;;;;;4986815;28;20181;-48
2021/05/26 12:16:22;;;;;;;2.20;2.00;;;;;;;;;;4998657;28;20178;-48
2021/05/26 12:18:49;;;;;;;5.30;2.07;;;;;;;;;;5005637;28;20609;-49
2021/05/26 12:21:15;;;;;;;2.40;2.20;;;;;;;;;;5004540;28;20176;-48
2021/05/26 12:23:40;;;;;;;3.03;2.00;;;;;;;;;;5007841;28;20940;-48
2021/05/26 12:26:22;;;;;;;1.80;1.70;;;;;;;;;;4996804;28;20198;-48
2021/05/26 12:28:47;;;;;;;2.87;1.90;;;;;;;;;;4992301;28;20221;-47
2021/05/26 12:31:13;;;;;;;1.70;1.60;;;;;;;;;;4987292;28;20686;-47
2021/05/26 12:33:43;;;;;;;2.37;2.23;;;;;;;;;;4988067;28;20947;-47
2021/05/26 12:36:09;;;;;;;2.13;2.00;;;;;;;;;;4981498;28;20186;-49
2021/05/26 12:38:35;;;;;;;2.10;1.93;;;;;;;;;;4991156;28;21291;-48
2021/05/26 12:41:20;;;;;;;1.70;1.60;;;;;;;;;;4984093;28;20702;-48
2021/05/26 12:43:45;;;;;;;2.50;1.80;;;;;;;;;;4982627;28;20626;-47
2021/05/26 12:46:11;;;;;;;2.90;2.23;;;;;;;;;;4979717;28;20691;-48
2021/05/26 12:48:36;;;;;;;2.23;1.93;;;;;;;;;;4980738;28;20665;-48
2021/05/26 12:51:01;;;;;;;1.90;1.80;;;;;;;;;;4981253;28;20194;-48
2021/05/26 12:53:30;;;;;;;1.83;1.60;;;;;;;;;;4984239;28;20177;-48
2021/05/26 12:55:56;;;;;;;1.73;1.63;;;;;;;;;;4987539;28;20164;-49
2021/05/26 12:58:21;;;;;;;1.53;1.43;;;;;;;;;;5000377;28;20585;-48
2021/05/26 13:00:48;;;;;;;1.93;1.43;;;;;;;;;;4996027;28;20698;-48
2021/05/26 13:03:19;;;;;;;1.00;1.00;;;;;;;;;;4982495;28;20230;-48
2021/05/26 13:05:47;;;;;;;1.40;1.30;;;;;;;;;;4982358;28;20636;-49
2021/05/26 13:08:18;;;;;;;1.30;1.20;;;;;;;;;;4984429;28;21149;-49
2021/05/26 13:10:47;;;;;;;1.13;1.03;;;;;;;;;;4983747;28;20606;-48
2021/05/26 13:13:20;;;;;;;1.63;1.30;;;;;;;;;;4983596;28;21561;-48
2021/05/26 13:15:46;;;;;;;1.03;0.97;;;;;;;;;;4978619;28;21083;-47
2021/05/26 13:18:12;;;;;;;1.07;1.00;;;;;;;;;;4979686;28;20610;-48
2021/05/26 13:20:38;;;;;;;0.90;0.90;;;;;;;;;;4984431;28;21000;-47
2021/05/26 13:23:04;;;;;;;1.53;0.83;;;;;;;;;;4983409;28;20315;-48
2021/05/26 13:25:32;;;;;;;0.90;0.90;;;;;;;;;;4998473;28;20621;-47
2021/05/26 13:27:57;;;;;;;1.00;1.00;;;;;;;;;;5004129;28;21117;-47
2021/05/26 13:30:23;;;;;;;1.27;1.00;;;;;;;;;;4997922;28;21266;-48
2021/05/26 13:32:49;;;;;;;0.90;0.90;;;;;;;;;;4983389;28;20279;-47
2021/05/26 13:35:14;;;;;;;0.90;0.80;;;;;;;;;;4983023;28;20605;-47
2021/05/26 13:37:39;;;;;;;1.10;1.00;;;;;;;;;;4985246;28;20263;-48
2021/05/26 13:40:06;;;;;;;0.90;0.90;;;;;;;;;;4982622;28;20265;-48
2021/05/26 13:42:33;;;;;;;1.27;0.90;;;;;;;;;;4984637;28;20178;-48
2021/05/26 13:44:58;;;;;;;3.27;1.07;;;;;;;;;;4982521;28;20595;-48
2021/05/26 13:47:23;;;;;;;1.13;1.13;;;;;;;;;;4965553;28;20658;-48
2021/05/26 13:49:48;;;;;;;0.93;0.93;;;;;;;;;;4984045;28;20197;-48
2021/05/26 13:52:13;;;;;;;1.52;1.10;;;;;;;;;;4978532;28;20186;-48
2021/05/26 13:54:38;;;;;;;0.90;0.90;;;;;;;;;;4977968;28;20176;-48
2021/05/26 13:57:04;;;;;;;2.38;1.70;;;;;;;;;;4996603;28;20281;-48
2021/05/26 13:59:29;;;;;;;1.33;1.27;;;;;;;;;;4992844;28;20184;-48
2021/05/26 14:01:54;;;;;;;1.03;1.03;;;;;;;;;;4981391;28;20188;-48
2021/05/26 14:04:19;;;;;;;1.17;1.10;;;;;;;;;;4983692;28;20184;-48
2021/05/26 14:06:46;;;;;;;1.20;1.20;;;;;;;;;;4982289;28;20225;-48
2021/05/26 14:09:11;;;;;;;1.00;1.00;;;;;;;;;;4985097;28;20182;-48
2021/05/26 14:11:36;;;;;;;1.20;1.10;;;;;;;;;;5001486;28;20659;-47
2021/05/26 14:14:01;;;;;;;1.30;1.20;;;;;;;;;;4999160;28;20629;-48
2021/05/26 14:16:27;;;;;;;1.07;1.07;;;;;;;;;;4994504;28;20186;-47
2021/05/26 14:18:52;;;;;;;1.40;1.30;;;;;;;;;;4984684;28;20191;-47
2021/05/26 14:21:18;;;;;;;1.10;1.10;;;;;;;;;;4984341;28;20183;-48
2021/05/26 14:23:43;;;;;;;1.00;1.00;;;;;;;;;;4978164;28;20183;-48
2021/05/26 14:26:08;;;;;;;1.65;1.30;;;;;;;;;;4983342;28;20984;-51
2021/05/26 14:28:33;;;;;;;1.10;1.00;;;;;;;;;;4979390;28;20683;-48
2021/05/26 14:30:58;;;;;;;1.17;1.17;;;;;;;;;;4986160;28;20231;-48
2021/05/26 14:33:23;;;;;;;2.53;1.07;;;;;;;;;;4986041;28;20227;-48
2021/05/26 14:35:50;;;;;;;1.23;1.13;;;;;;;;;;4982232;28;20179;-48
2021/05/26 14:41:16;;;;;;;0.70;0.70;;;;;;;;;;4978892;28;20608;-48
2021/05/26 14:43:41;;;;;;;1.17;0.83;;;;;;;;;;4982678;28;20684;-47